createdAt,value
2023-03-11T00:00:39.858Z,2.72
2023-03-11T00:03:27.771Z,2.76
2023-03-11T00:05:59.415Z,2.68
2023-03-11T00:08:28.660Z,2.83
2023-03-11T00:11:00.398Z,2.77
2023-03-11T00:13:29.866Z,2.76
2023-03-11T00:15:59.829Z,2.67
2023-03-11T00:18:31.653Z,2.78
2023-03-11T00:21:03.181Z,2.72
2023-03-11T00:23:32.849Z,2.61
2023-03-11T00:26:03.564Z,2.51
2023-03-11T00:28:34.335Z,2.46
2023-03-11T00:31:04.088Z,2.63
2023-03-11T00:33:33.235Z,2.49
2023-03-11T00:36:04.179Z,2.51
2023-03-11T00:38:33.355Z,2.58
2023-03-11T00:41:02.934Z,2.60
2023-03-11T00:43:32.059Z,2.61
2023-03-11T00:46:01.603Z,2.41
2023-03-11T00:48:30.750Z,2.66
2023-03-11T00:51:00.173Z,2.62
2023-03-11T00:53:30.715Z,2.54
2023-03-11T00:56:01.525Z,2.62
2023-03-11T00:58:30.881Z,2.62
2023-03-11T01:01:00.354Z,2.68
2023-03-11T01:03:29.452Z,2.53
2023-03-11T01:05:58.903Z,2.50
2023-03-11T01:08:28.038Z,2.66
2023-03-11T01:10:59.111Z,2.73
2023-03-11T01:13:29.586Z,2.70
2023-03-11T01:15:59.074Z,2.70
2023-03-11T01:18:28.161Z,2.49
2023-03-11T01:20:57.603Z,2.53
2023-03-11T01:23:26.684Z,2.65
2023-03-11T01:25:56.092Z,2.58
2023-03-11T01:28:26.596Z,2.47
2023-03-11T01:30:56.140Z,2.33
2023-03-11T01:33:25.254Z,2.37
2023-03-11T01:35:54.701Z,2.53
2023-03-11T01:38:23.902Z,2.38
2023-03-11T01:40:53.541Z,2.29
2023-03-11T01:43:40.976Z,2.29
2023-03-11T01:46:13.027Z,2.32
2023-03-11T01:48:42.563Z,2.33
2023-03-11T01:51:11.983Z,2.30
2023-03-11T01:53:41.028Z,2.34
2023-03-11T01:56:10.471Z,2.45
2023-03-11T01:58:41.243Z,2.32
2023-03-11T02:01:10.662Z,2.24
2023-03-11T02:03:40.689Z,2.26
2023-03-11T02:06:11.031Z,2.34
2023-03-11T02:08:40.275Z,2.36
2023-03-11T02:11:10.050Z,2.36
2023-03-11T02:13:40.572Z,2.32
2023-03-11T02:16:10.099Z,2.33
2023-03-11T02:18:39.216Z,2.32
2023-03-11T02:21:11.244Z,2.28
2023-03-11T02:23:41.851Z,2.28
2023-03-11T02:26:12.200Z,2.35
2023-03-11T02:28:42.730Z,2.25
2023-03-11T02:31:12.194Z,2.32
2023-03-11T02:33:41.353Z,2.33
2023-03-11T02:36:25.733Z,2.27
2023-03-11T02:38:54.937Z,2.25
2023-03-11T02:41:24.400Z,2.37
2023-03-11T02:43:54.862Z,2.31
2023-03-11T02:46:24.332Z,2.32
2023-03-11T02:48:53.440Z,2.26
2023-03-11T02:51:22.821Z,2.27
2023-03-11T02:53:52.730Z,2.17
2023-03-11T02:56:22.205Z,2.22
2023-03-11T02:58:51.381Z,2.28
2023-03-11T03:01:22.237Z,2.33
2023-03-11T03:03:51.390Z,2.27
2023-03-11T03:06:20.874Z,2.14
2023-03-11T03:08:50.047Z,2.11
2023-03-11T03:11:19.513Z,2.11
2023-03-11T03:13:48.538Z,2.02
2023-03-11T03:16:18.085Z,2.11
2023-03-11T03:18:48.628Z,2.10
2023-03-11T03:21:18.040Z,2.29
2023-03-11T03:23:47.117Z,2.28
2023-03-11T03:26:16.674Z,2.10
2023-03-11T03:28:45.794Z,2.13
2023-03-11T03:31:15.284Z,2.13
2023-03-11T03:33:44.354Z,2.19
2023-03-11T03:36:16.078Z,2.05
2023-03-11T03:38:45.143Z,2.16
2023-03-11T03:41:14.951Z,2.15
2023-03-11T03:43:44.064Z,2.11
2023-03-11T03:46:13.571Z,1.96
2023-03-11T03:48:42.765Z,2.02
2023-03-11T03:51:12.887Z,2.08
2023-03-11T03:53:43.392Z,1.89
2023-03-11T03:56:13.586Z,1.90
2023-03-11T03:58:42.760Z,1.94
2023-03-11T04:01:12.587Z,1.85
2023-03-11T04:03:41.771Z,1.93
2023-03-11T04:06:11.766Z,1.82
2023-03-11T04:08:41.191Z,1.75
2023-03-11T04:11:12.097Z,1.94
2023-03-11T04:13:41.540Z,1.77
2023-03-11T04:16:11.580Z,1.97
2023-03-11T04:18:40.670Z,1.85
2023-03-11T04:21:10.205Z,1.78
2023-03-11T04:23:39.361Z,1.76
2023-03-11T04:26:08.795Z,1.78
2023-03-11T04:28:39.365Z,1.85
2023-03-11T04:31:08.860Z,1.72
2023-03-11T04:33:38.039Z,1.73
2023-03-11T04:36:07.790Z,1.72
2023-03-11T04:38:37.084Z,1.63
2023-03-11T04:41:07.021Z,1.76
2023-03-11T04:43:36.165Z,1.64
2023-03-11T04:46:07.190Z,1.75
2023-03-11T04:48:36.286Z,1.70
2023-03-11T04:51:05.820Z,1.76
2023-03-11T04:53:34.968Z,1.79
2023-03-11T04:56:04.390Z,1.71
2023-03-11T04:58:33.448Z,1.67
2023-03-11T05:01:02.906Z,1.62
2023-03-11T05:03:33.444Z,1.78
2023-03-11T05:06:02.924Z,1.72
2023-03-11T05:08:31.975Z,1.61
2023-03-11T05:11:01.436Z,1.39
2023-03-11T05:13:30.690Z,1.36
2023-03-11T05:16:00.246Z,1.47
2023-03-11T05:18:31.111Z,1.49
2023-03-11T05:21:01.974Z,1.47
2023-03-11T05:23:30.930Z,1.36
2023-03-11T05:26:00.362Z,1.47
2023-03-11T05:28:29.451Z,1.40
2023-03-11T05:30:58.905Z,1.47
2023-03-11T05:33:32.385Z,1.40
2023-03-11T05:36:06.508Z,1.29
2023-03-11T05:38:35.705Z,1.26
2023-03-11T05:41:06.513Z,1.34
2023-03-11T05:43:35.637Z,1.39
2023-03-11T05:46:05.313Z,1.31
2023-03-11T05:48:34.486Z,1.23
2023-03-11T05:51:09.256Z,1.16
2023-03-11T05:53:38.470Z,1.17
2023-03-11T05:56:08.359Z,1.11
2023-03-11T05:58:37.472Z,1.13
2023-03-11T06:01:09.191Z,1.04
2023-03-11T06:03:38.425Z,1.08
2023-03-11T06:06:09.856Z,0.95
2023-03-11T06:08:39.126Z,1.08
2023-03-11T06:11:09.111Z,0.96
2023-03-11T06:13:38.593Z,1.18
2023-03-11T06:16:08.463Z,1.20
2023-03-11T06:18:37.604Z,1.16
2023-03-11T06:21:08.673Z,1.14
2023-03-11T06:23:39.194Z,1.22
2023-03-11T06:26:08.662Z,1.15
2023-03-11T06:28:37.706Z,1.04
2023-03-11T06:31:10.824Z,1.14
2023-03-11T06:33:39.949Z,1.12
2023-03-11T06:36:09.891Z,1.09
2023-03-11T06:38:40.417Z,1.06
2023-03-11T06:41:10.036Z,1.03
2023-03-11T06:43:39.182Z,1.06
2023-03-11T06:46:12.104Z,1.13
2023-03-11T06:48:41.207Z,1.02
2023-03-11T06:51:11.194Z,1.04
2023-03-11T06:53:41.732Z,1.08
2023-03-11T06:56:12.071Z,1.18
2023-03-11T06:58:41.567Z,1.00
2023-03-11T07:01:12.118Z,1.01
2023-03-11T07:03:41.330Z,1.00
2023-03-11T07:06:12.954Z,1.07
2023-03-11T07:08:43.492Z,1.26
2023-03-11T07:11:14.677Z,1.36
2023-03-11T07:13:43.878Z,1.09
2023-03-11T07:16:15.658Z,1.01
2023-03-11T07:18:45.156Z,1.01
2023-03-11T07:21:15.227Z,1.02
2023-03-11T07:23:45.872Z,1.22
2023-03-11T07:26:15.746Z,1.29
2023-03-11T07:28:45.850Z,1.26
2023-03-11T07:31:16.730Z,1.17
2023-03-11T07:33:50.709Z,1.30
2023-03-11T07:36:20.765Z,1.15
2023-03-11T07:38:51.486Z,1.19
2023-03-11T07:41:20.987Z,1.23
2023-03-11T07:43:50.010Z,1.14
2023-03-11T07:46:19.914Z,1.29
2023-03-11T07:48:49.336Z,1.40
2023-03-11T07:51:19.476Z,1.18
2023-03-11T07:53:48.700Z,1.24
2023-03-11T07:56:19.774Z,1.12
2023-03-11T07:58:48.958Z,1.16
2023-03-11T08:01:19.178Z,1.29
2023-03-11T08:03:49.782Z,1.12
2023-03-11T08:06:19.832Z,1.27
2023-03-11T08:08:48.985Z,1.36
2023-03-11T08:11:20.826Z,1.37
2023-03-11T08:13:49.919Z,1.39
2023-03-11T08:16:19.884Z,1.57
2023-03-11T08:18:49.140Z,1.35
2023-03-11T08:21:19.328Z,1.32
2023-03-11T08:23:48.408Z,1.24
2023-03-11T08:26:18.647Z,1.44
2023-03-11T08:28:49.287Z,1.45
2023-03-11T08:31:19.335Z,1.37
2023-03-11T08:33:50.048Z,1.37
2023-03-11T08:36:20.130Z,1.44
2023-03-11T08:38:49.266Z,1.53
2023-03-11T08:41:18.766Z,1.60
2023-03-11T08:43:49.358Z,1.43
2023-03-11T08:46:21.542Z,1.32
2023-03-11T08:48:50.739Z,1.53
2023-03-11T08:51:20.255Z,1.57
2023-03-11T08:53:49.341Z,1.35
2023-03-11T08:56:18.834Z,1.33
2023-03-11T08:58:49.382Z,1.69
2023-03-11T09:01:20.302Z,1.70
2023-03-11T09:03:49.441Z,1.65
2023-03-11T09:06:19.039Z,1.73
2023-03-11T09:08:48.635Z,1.81
2023-03-11T09:11:18.783Z,1.76
2023-03-11T09:13:49.809Z,1.44
2023-03-11T09:16:20.010Z,1.51
2023-03-11T09:18:49.120Z,1.71
2023-03-11T09:21:18.918Z,1.85
2023-03-11T09:23:48.294Z,1.92
2023-03-11T09:26:17.656Z,1.88
2023-03-11T09:28:49.379Z,1.86
2023-03-11T09:31:20.437Z,2.09
2023-03-11T09:33:50.176Z,2.01
2023-03-11T09:36:20.619Z,1.93
2023-03-11T09:38:49.771Z,1.98
2023-03-11T09:41:28.375Z,2.03
2023-03-11T09:44:01.270Z,1.94
2023-03-11T09:46:46.731Z,1.99
2023-03-11T09:49:17.466Z,1.98
2023-03-11T09:51:48.189Z,1.91
2023-03-11T09:54:17.349Z,2.19
2023-03-11T09:56:46.727Z,2.18
2023-03-11T09:59:16.855Z,2.14
2023-03-11T10:01:48.355Z,1.88
2023-03-11T10:04:18.936Z,2.03
2023-03-11T10:06:48.686Z,2.17
2023-03-11T10:09:26.840Z,2.19
2023-03-11T10:11:59.062Z,1.92
2023-03-11T10:14:31.802Z,1.75
2023-03-11T10:17:04.892Z,1.95
2023-03-11T10:19:36.300Z,2.17
2023-03-11T10:22:08.446Z,2.10
2023-03-11T10:24:42.415Z,2.23
2023-03-11T10:27:13.043Z,2.22
2023-03-11T10:29:44.228Z,2.19
2023-03-11T10:32:16.087Z,2.35
2023-03-11T10:34:45.507Z,2.38
2023-03-11T10:37:15.885Z,2.36
2023-03-11T10:39:44.996Z,2.27
2023-03-11T10:42:15.321Z,2.22
2023-03-11T10:44:44.455Z,2.19
2023-03-11T10:47:16.527Z,2.15
2023-03-11T10:49:45.775Z,2.26
2023-03-11T10:52:15.319Z,2.25
2023-03-11T10:54:46.460Z,2.29
2023-03-11T10:57:23.654Z,2.23
2023-03-11T10:59:53.452Z,2.46
2023-03-11T11:02:26.941Z,2.46
2023-03-11T11:05:07.361Z,2.48
2023-03-11T11:07:37.178Z,2.47
2023-03-11T11:10:16.698Z,2.30
2023-03-11T11:12:56.393Z,2.63
2023-03-11T11:15:27.621Z,2.74
2023-03-11T11:17:59.448Z,2.69
2023-03-11T11:20:28.822Z,2.79
2023-03-11T11:22:58.850Z,2.45
2023-03-11T11:25:29.606Z,2.52
2023-03-11T11:27:59.743Z,2.48
2023-03-11T11:30:29.022Z,2.11
2023-03-11T11:33:04.350Z,2.17
2023-03-11T11:35:33.519Z,2.40
2023-03-11T11:38:04.390Z,2.45
2023-03-11T11:40:33.642Z,2.42
2023-03-11T11:43:04.292Z,2.52
2023-03-11T11:45:37.295Z,2.58
2023-03-11T11:48:13.801Z,2.50
2023-03-11T11:50:43.593Z,2.69
2023-03-11T11:53:16.252Z,2.58
2023-03-11T11:55:45.898Z,2.71
2023-03-11T11:58:15.334Z,2.57
2023-03-11T12:00:47.322Z,2.55
2023-03-11T12:03:29.035Z,2.64
2023-03-11T12:05:59.146Z,2.60
2023-03-11T12:08:29.773Z,2.61
2023-03-11T12:10:59.191Z,2.80
2023-03-11T12:13:37.579Z,2.93
2023-03-11T12:16:07.385Z,2.73
2023-03-11T12:18:39.192Z,2.64
2023-03-11T12:21:11.560Z,2.80
2023-03-11T12:23:43.638Z,2.96
2023-03-11T12:26:15.195Z,2.85
2023-03-11T12:28:47.855Z,2.88
2023-03-11T12:31:17.082Z,2.94
2023-03-11T12:33:47.984Z,2.97
2023-03-11T12:36:27.040Z,2.87
2023-03-11T12:38:56.606Z,3.02
2023-03-11T12:41:30.842Z,2.99
2023-03-11T12:44:04.531Z,2.68
2023-03-11T12:46:53.973Z,2.68
2023-03-11T12:49:26.114Z,2.74
2023-03-11T12:52:17.849Z,2.78
2023-03-11T12:54:47.462Z,2.91
2023-03-11T12:57:40.580Z,2.73
2023-03-11T13:00:19.668Z,2.87
2023-03-11T13:03:10.764Z,2.86
2023-03-11T13:05:47.565Z,2.91
2023-03-11T13:08:17.140Z,2.97
2023-03-11T13:10:47.360Z,2.99
2023-03-11T13:13:40.075Z,2.95
2023-03-11T13:16:42.262Z,2.98
2023-03-11T13:19:34.782Z,3.02
2023-03-11T13:22:06.823Z,3.03
2023-03-11T13:24:42.734Z,3.20
2023-03-11T13:27:12.631Z,3.08
2023-03-11T13:29:55.550Z,3.02
2023-03-11T13:32:37.754Z,2.85
2023-03-11T13:35:12.789Z,2.95
2023-03-11T13:37:46.160Z,2.94
2023-03-11T13:40:18.321Z,2.99
2023-03-11T13:42:48.236Z,2.97
2023-03-11T13:45:24.024Z,2.95
2023-03-11T13:47:53.497Z,2.97
2023-03-11T13:50:24.505Z,3.07
2023-03-11T13:52:55.424Z,3.10
2023-03-11T13:55:25.232Z,3.13
2023-03-11T13:57:55.076Z,3.03
2023-03-11T14:00:25.470Z,3.01
2023-03-11T14:02:55.641Z,2.93
2023-03-11T14:05:25.373Z,2.99
2023-03-11T14:07:56.209Z,2.94
2023-03-11T14:10:26.653Z,2.90
2023-03-11T14:13:08.851Z,2.92
2023-03-11T14:15:44.643Z,3.00
2023-03-11T14:18:25.765Z,3.10
2023-03-11T14:20:54.965Z,3.02
2023-03-11T14:23:26.591Z,3.21
2023-03-11T14:25:59.530Z,3.07
2023-03-11T14:28:28.988Z,3.17
2023-03-11T14:30:58.251Z,3.16
2023-03-11T14:33:27.786Z,3.15
2023-03-11T14:35:57.326Z,3.25
2023-03-11T14:38:28.996Z,3.22
2023-03-11T14:40:58.743Z,3.20
2023-03-11T14:43:28.491Z,3.15
2023-03-11T14:45:57.766Z,3.10
2023-03-11T14:48:27.649Z,3.05
2023-03-11T14:50:56.787Z,3.10
2023-03-11T14:53:26.449Z,3.10
2023-03-11T14:55:58.235Z,3.19
2023-03-11T14:58:30.451Z,3.21
2023-03-11T15:01:00.882Z,3.28
2023-03-11T15:03:31.860Z,2.99
2023-03-11T15:06:03.214Z,3.40
2023-03-11T15:08:33.136Z,3.58
2023-03-11T15:11:04.373Z,3.79
2023-03-11T15:13:34.122Z,3.83
2023-03-11T15:16:03.495Z,3.94
2023-03-11T15:18:33.526Z,3.99
2023-03-11T15:21:06.737Z,4.03
2023-03-11T15:23:36.871Z,4.04
2023-03-11T15:26:07.493Z,3.96
2023-03-11T15:28:38.080Z,3.92
2023-03-11T15:31:17.043Z,3.75
2023-03-11T15:33:46.737Z,3.73
2023-03-11T15:36:31.902Z,3.78
2023-03-11T15:39:15.216Z,3.79
2023-03-11T15:41:46.461Z,3.91
2023-03-11T15:44:26.693Z,3.96
2023-03-11T15:46:55.842Z,3.87
2023-03-11T15:49:25.296Z,3.75
2023-03-11T15:51:54.393Z,3.89
2023-03-11T15:54:23.829Z,3.73
2023-03-11T15:56:55.244Z,3.75
2023-03-11T15:59:24.663Z,3.65
2023-03-11T16:01:53.773Z,3.55
2023-03-11T16:04:23.364Z,3.52
2023-03-11T16:07:06.860Z,3.48
2023-03-11T16:09:37.601Z,3.45
2023-03-11T16:12:12.478Z,3.41
2023-03-11T16:14:41.876Z,3.40
2023-03-11T16:17:14.394Z,3.52
2023-03-11T16:19:44.010Z,3.40
2023-03-11T16:22:15.799Z,3.33
2023-03-11T16:24:45.251Z,3.45
2023-03-11T16:27:17.950Z,3.50
2023-03-11T16:29:47.638Z,3.38
2023-03-11T16:32:17.009Z,3.33
2023-03-11T16:34:46.519Z,3.24
2023-03-11T16:37:17.528Z,3.34
2023-03-11T16:39:46.978Z,3.28
2023-03-11T16:42:17.719Z,3.23
2023-03-11T16:44:47.218Z,3.22
2023-03-11T16:47:16.279Z,3.19
2023-03-11T16:49:45.745Z,3.28
2023-03-11T16:52:14.893Z,3.35
2023-03-11T16:54:44.337Z,3.32
2023-03-11T16:57:13.408Z,3.36
2023-03-11T16:59:44.277Z,3.22
2023-03-11T17:02:13.413Z,3.24
2023-03-11T17:04:42.859Z,3.22
2023-03-11T17:07:12.107Z,3.26
2023-03-11T17:09:41.542Z,3.23
2023-03-11T17:12:13.532Z,3.10
2023-03-11T17:14:44.503Z,2.96
2023-03-11T17:17:13.731Z,3.04
2023-03-11T17:19:43.170Z,3.16
2023-03-11T17:22:12.289Z,3.12
2023-03-11T17:24:41.743Z,3.06
2023-03-11T17:27:10.986Z,3.12
2023-03-11T17:29:40.438Z,3.09
2023-03-11T17:32:16.904Z,3.10
2023-03-11T17:34:46.546Z,2.97
2023-03-11T17:37:15.654Z,2.81
2023-03-11T17:39:45.104Z,2.83
2023-03-11T17:42:14.455Z,2.90
2023-03-11T17:44:51.348Z,2.78
2023-03-11T17:47:26.163Z,2.62
2023-03-11T17:49:55.738Z,2.70
2023-03-11T17:52:24.837Z,2.80
2023-03-11T17:54:56.002Z,2.79
2023-03-11T17:57:25.157Z,2.77
2023-03-11T17:59:54.792Z,2.68
2023-03-11T18:02:25.395Z,2.68
2023-03-11T18:04:54.928Z,2.75
2023-03-11T18:07:26.033Z,2.84
2023-03-11T18:09:55.501Z,2.78
2023-03-11T18:12:24.498Z,2.83
2023-03-11T18:14:54.051Z,2.80
2023-03-11T18:17:23.703Z,2.79
2023-03-11T18:19:54.512Z,2.84
2023-03-11T18:22:23.624Z,2.85
2023-03-11T18:24:53.051Z,2.83
2023-03-11T18:27:22.128Z,2.83
2023-03-11T18:29:51.616Z,2.78
2023-03-11T18:32:21.408Z,2.80
2023-03-11T18:34:51.068Z,2.78
2023-03-11T18:37:21.631Z,2.73
2023-03-11T18:39:52.070Z,2.70
2023-03-11T18:42:23.209Z,2.74
2023-03-11T18:44:52.722Z,2.58
2023-03-11T18:47:21.881Z,2.54
2023-03-11T18:49:51.508Z,2.44
2023-03-11T18:52:22.684Z,2.58
2023-03-11T18:54:52.194Z,2.39
2023-03-11T18:57:21.223Z,2.40
2023-03-11T18:59:52.158Z,2.21
2023-03-11T19:02:21.321Z,2.24
2023-03-11T19:04:50.918Z,2.18
2023-03-11T19:07:22.748Z,2.33
2023-03-11T19:09:52.335Z,2.21
2023-03-11T19:12:21.427Z,2.07
2023-03-11T19:14:50.838Z,2.06
2023-03-11T19:17:19.868Z,2.08
2023-03-11T19:19:49.288Z,2.02
2023-03-11T19:22:18.393Z,1.93
2023-03-11T19:24:49.270Z,2.08
2023-03-11T19:27:18.328Z,2.08
2023-03-11T19:29:47.781Z,1.87
2023-03-11T19:32:16.910Z,1.94
2023-03-11T19:34:46.595Z,1.83
2023-03-11T19:37:17.240Z,1.85
2023-03-11T19:39:46.657Z,1.85
2023-03-11T19:42:17.264Z,1.79
2023-03-11T19:44:46.881Z,1.78
2023-03-11T19:47:16.223Z,1.73
2023-03-11T19:49:45.706Z,1.70
2023-03-11T19:52:16.939Z,1.74
2023-03-11T19:54:46.442Z,1.67
2023-03-11T19:57:17.035Z,1.74
2023-03-11T19:59:46.611Z,1.72
2023-03-11T20:02:16.647Z,1.72
2023-03-11T20:04:46.284Z,1.76
2023-03-11T20:07:15.456Z,1.64
2023-03-11T20:09:51.017Z,1.64
2023-03-11T20:12:21.586Z,1.67
2023-03-11T20:14:51.046Z,1.68
2023-03-11T20:17:20.217Z,1.64
2023-03-11T20:19:49.724Z,1.71
2023-03-11T20:22:20.134Z,1.63
2023-03-11T20:24:49.567Z,1.69
2023-03-11T20:27:18.729Z,1.62
2023-03-11T20:29:49.649Z,1.60
2023-03-11T20:32:18.936Z,1.57
2023-03-11T20:34:48.374Z,1.61
2023-03-11T20:37:17.567Z,1.64
2023-03-11T20:39:47.233Z,1.56
2023-03-11T20:42:16.365Z,1.57
2023-03-11T20:44:51.177Z,1.66
2023-03-11T20:47:24.537Z,1.65
2023-03-11T20:49:54.872Z,1.62
2023-03-11T20:52:23.907Z,1.60
2023-03-11T20:54:56.116Z,1.56
2023-03-11T20:57:25.236Z,1.59
2023-03-11T20:59:54.700Z,1.62
2023-03-11T21:02:25.597Z,1.63
2023-03-11T21:04:55.292Z,1.67
2023-03-11T21:07:24.506Z,1.72
2023-03-11T21:09:55.158Z,1.86
2023-03-11T21:12:26.209Z,1.90
2023-03-11T21:14:55.774Z,1.88
2023-03-11T21:17:26.548Z,1.90
2023-03-11T21:19:56.213Z,1.96
2023-03-11T21:22:25.311Z,2.05
2023-03-11T21:24:54.910Z,2.11
2023-03-11T21:27:26.654Z,2.03
2023-03-11T21:29:56.548Z,1.99
2023-03-11T21:32:28.079Z,1.95
2023-03-11T21:34:57.839Z,2.02
2023-03-11T21:37:27.260Z,2.05
2023-03-11T21:39:56.769Z,2.10
2023-03-11T21:42:25.924Z,2.12
2023-03-11T21:44:55.315Z,1.97
2023-03-11T21:47:24.417Z,2.08
2023-03-11T21:49:55.291Z,1.87
2023-03-11T21:52:24.353Z,1.95
2023-03-11T21:54:53.780Z,2.09
2023-03-11T21:57:22.964Z,2.00
2023-03-11T21:59:52.387Z,2.02
2023-03-11T22:02:21.507Z,2.06
2023-03-11T22:04:51.074Z,1.99
2023-03-11T22:07:22.842Z,1.94
2023-03-11T22:09:53.508Z,2.02
2023-03-11T22:12:22.751Z,2.06
2023-03-11T22:14:52.109Z,1.96
2023-03-11T22:17:21.258Z,2.10
2023-03-11T22:19:50.837Z,2.17
2023-03-11T22:22:21.454Z,2.19
2023-03-11T22:24:50.850Z,2.21
2023-03-11T22:27:19.926Z,2.16
2023-03-11T22:29:49.303Z,2.17
2023-03-11T22:32:18.398Z,2.15
2023-03-11T22:34:47.759Z,2.15
2023-03-11T22:37:16.843Z,2.16
2023-03-11T22:39:47.737Z,2.17
2023-03-11T22:42:16.815Z,2.14
2023-03-11T22:44:46.179Z,2.10
2023-03-11T22:47:15.188Z,2.10
2023-03-11T22:49:44.633Z,2.04
2023-03-11T22:52:13.731Z,2.00
2023-03-11T22:54:43.084Z,1.77
2023-03-11T22:57:13.595Z,1.83
2023-03-11T22:59:42.912Z,1.85
2023-03-11T23:02:12.055Z,1.73
2023-03-11T23:04:41.422Z,1.70
2023-03-11T23:07:10.498Z,1.68
2023-03-11T23:09:39.896Z,1.59
2023-03-11T23:12:09.267Z,1.53
2023-03-11T23:14:44.862Z,1.44
2023-03-11T23:17:14.248Z,1.41
2023-03-11T23:19:43.652Z,1.37
2023-03-11T23:22:12.720Z,1.28
2023-03-11T23:24:42.047Z,1.47
2023-03-11T23:27:11.116Z,1.48
2023-03-11T23:29:43.946Z,1.54
2023-03-11T23:32:12.998Z,1.37
2023-03-11T23:34:42.363Z,1.23
2023-03-11T23:37:11.495Z,1.27
2023-03-11T23:39:40.895Z,1.31
2023-03-11T23:42:24.525Z,1.29
2023-03-11T23:44:56.068Z,1.43
2023-03-11T23:47:25.148Z,1.42
2023-03-11T23:49:54.531Z,1.40
2023-03-11T23:52:23.565Z,1.43
2023-03-11T23:54:52.941Z,1.36
2023-03-11T23:57:22.009Z,1.42
2023-03-11T23:59:51.379Z,1.30
